Date,TemperatureHighF,TemperatureAvgF,TemperatureLowF,DewpointHighF,DewpointAvgF,DewpointLowF,HumidityHigh,HumidityAvg,HumidityLow,PressureMaxIn,PressureMinIn,WindSpeedMaxMPH,WindSpeedAvgMPH,GustSpeedMaxMPH,PrecipitationSumIn
2013-1-9,37,36,35,31,29,28,83,77,70,30.42,30.03,12,6,24,0.01
2013-1-10,37,26,19,28,22,16,94,84,69,30.56,30.24,8,1,12,0.01
2013-1-11,31,29,28,28,25,22,93,84,75,30.24,30.02,5,1,10,0.00
2013-1-12,37,34,30,37,33,29,100,96,94,30.05,29.96,1,0,3,0.00
2013-1-13,38,36,34,38,36,33,100,99,96,30.04,29.76,3,0,9,0.20
2013-1-14,43,36,30,43,30,22,100,81,55,30.26,29.65,14,4,25,0.09
2013-1-15,30,26,21,22,18,13,81,72,55,30.35,30.19,5,1,10,0.00
2013-1-16,31,25,17,28,20,14,90,83,71,30.19,29.67,5,0,16,0.00
2013-1-17,32,9,-14,29,-1,-19,93,65,36,30.23,29.66,10,3,23,0.04
2013-1-18,9,-3,-17,4,-11,-22,86,70,49,30.34,30.16,8,1,20,0.02
2013-1-19,23,17,7,20,14,4,92,89,86,30.15,29.64,2,0,5,0.58
2013-1-20,35,19,1,35,14,-6,100,81,61,29.96,29.22,16,5,31,0.30
2013-1-21,3,-3,-11,-6,-10,-16,82,72,56,30.08,29.91,3,1,12,0.00
2013-1-22,4,-3,-14,-2,-10,-20,81,73,66,30.13,29.89,9,1,15,0.00
2013-1-23,-6,-17,-29,-18,-24,-34,80,70,54,30.25,30.12,6,1,13,0.00
2013-1-24,0,-8,-20,-8,-16,-25,80,69,58,30.37,30.17,12,3,22,0.00
2013-1-25,7,-3,-16,-4,-10,-21,84,71,58,30.38,30.14,8,1,15,0.00
2013-1-26,15,-1,-17,5,-7,-21,90,76,56,30.33,30.14,10,1,18,0.00
2013-1-27,14,3,-10,1,-4,-15,86,72,55,30.53,30.33,5,1,12,0.00
2013-1-28,18,11,0,14,6,-4,87,81,65,30.47,30.04,3,0,9,0.03
2013-1-29,26,18,5,25,14,1,94,84,73,30.20,29.84,3,0,10,0.02
2013-1-30,45,35,27,45,34,25,100,97,94,29.85,29.13,2,0,5,0.25
2013-1-31,45,28,8,45,23,-2,100,79,55,29.50,28.76,17,7,36,0.86
2013-2-1,11,5,-2,-1,-4,-7,78,65,54,30.14,29.50,9,4,18,0.00
2013-2-2,6,-1,-9,1,-6,-14,84,80,73,30.19,30.06,5,0,7,0.00
2013-2-3,16,8,-4,10,4,-8,89,84,76,30.08,29.78,2,0,5,0.00
2013-2-4,18,8,-4,12,1,-12,91,72,52,29.93,29.71,10,2,21,0.00
2013-2-5,11,0,-16,4,-8,-21,86,69,48,30.04,29.90,5,0,10,0.00
2013-2-6,19,8,-8,12,0,-12,89,69,43,30.41,29.84,13,3,23,0.00
2013-2-7,0,-5,-15,-11,-16,-20,81,60,39,30.64,30.41,2,0,7,0.00
2013-2-8,12,6,-1,8,2,-14,87,81,54,30.50,30.15,6,2,21,0.12
2013-2-9,22,11,-6,8,1,-11,85,67,37,30.39,30.17,5,1,14,0.01
2013-2-10,24,5,-10,5,-4,-15,85,69,40,30.47,30.24,3,0,7,0.00
2013-2-11,32,22,4,31,15,-1,96,77,54,30.24,29.51,3,0,9,0.20
2013-2-12,36,33,28,33,29,23,96,87,78,29.78,29.50,12,4,24,0.03
2013-2-13,34,29,25,25,23,21,87,78,65,29.81,29.74,8,1,13,0.00
2013-2-14,36,30,26,26,24,22,90,77,63,29.90,29.75,6,1,10,0.00
2013-2-15,35,30,25,33,27,20,95,88,78,29.91,29.75,7,2,17,0.17
2013-2-16,25,14,5,20,7,1,87,73,53,30.03,29.91,7,1,13,0.00
2013-2-17,18,8,-4,4,0,-8,87,70,53,29.95,29.75,10,3,20,0.00
2013-2-18,21,9,1,2,-3,-6,80,61,32,30.15,29.89,9,3,21,0.00
2013-2-19,27,20,2,25,10,-2,94,67,39,30.12,29.58,7,1,14,0.20
2013-2-20,29,24,12,26,21,5,94,86,73,29.74,29.53,12,4,25,0.09
2013-2-21,34,21,10,28,15,4,90,77,62,30.37,29.74,8,2,15,0.00
2013-2-22,34,24,9,26,19,6,94,83,66,30.44,30.21,3,1,10,0.00
2013-2-23,31,28,24,29,25,20,95,89,84,30.21,29.85,3,1,10,0.13
2013-2-24,34,32,30,32,30,29,95,94,91,29.95,29.80,1,0,2,0.01
2013-2-25,34,32,30,32,30,29,95,94,89,30.22,29.95,1,0,2,0.00
2013-2-26,35,31,26,32,29,24,96,92,86,30.31,30.12,3,0,12,0.00
2013-2-27,35,32,31,31,29,26,96,86,72,30.12,29.68,6,3,18,0.40
2013-2-28,34,32,30,32,30,28,96,94,90,29.68,29.58,5,1,10,0.26
2013-3-1,33,31,29,31,29,28,95,93,88,29.80,29.66,3,0,7,0.01
2013-3-2,34,29,25,28,26,23,94,87,71,29.79,29.75,6,2,12,0.02
2013-3-3,35,28,24,29,25,20,93,86,77,29.75,29.66,6,2,13,0.01
2013-3-4,29,25,20,24,20,16,89,82,72,29.87,29.67,8,3,14,0.00
2013-3-5,39,31,26,33,28,23,94,88,78,30.15,29.87,5,0,13,0.00
2013-3-6,38,35,32,31,30,27,88,82,74,30.26,30.14,6,2,16,0.00
2013-3-7,32,30,29,27,23,21,86,76,66,30.29,30.22,6,1,15,0.00
2013-3-8,40,30,22,26,22,19,90,73,50,30.35,30.25,3,1,9,0.00
2013-3-9,44,29,16,28,22,14,92,75,48,30.39,30.32,3,0,6,0.00
2013-3-10,41,33,25,30,27,22,89,79,63,30.32,30.02,3,0,8,0.00
2013-3-11,45,38,31,35,32,29,94,79,64,30.05,29.82,3,0,8,0.02
2013-3-12,43,37,31,43,36,29,100,96,93,29.83,29.73,5,1,10,0.57
2013-3-13,40,35,30,30,27,22,95,73,50,29.78,29.70,8,2,16,0.01
2013-3-14,31,20,9,29,13,4,93,72,52,29.91,29.65,12,4,20,0.00
2013-3-15,25,17,7,22,12,4,93,82,58,29.91,29.60,5,1,10,0.02
2013-3-16,23,15,3,16,8,0,89,75,59,29.92,29.77,6,1,12,0.00
2013-3-17,23,12,0,6,-1,-6,84,58,29,30.35,29.91,13,3,20,0.00
2013-3-18,26,13,-4,9,0,-8,82,58,37,30.46,30.12,5,1,13,0.00
2013-3-19,26,23,19,24,19,6,92,85,50,30.12,29.73,7,2,20,0.77
2013-3-20,32,26,20,26,22,18,91,86,75,29.73,29.61,6,1,13,0.02
2013-3-21,32,27,20,24,22,17,92,83,72,29.65,29.60,9,3,17,0.00
2013-3-22,34,27,22,23,21,19,93,81,61,29.72,29.61,7,2,13,0.00
2013-3-23,39,31,23,25,22,19,88,72,54,29.80,29.64,15,6,29,0.00
2013-3-24,40,33,24,27,24,22,91,71,54,29.88,29.79,9,2,14,0.00
2013-3-25,44,35,23,31,27,21,93,74,50,29.82,29.66,8,2,16,0.00
2013-3-26,46,37,27,28,25,22,80,63,42,29.78,29.72,6,1,14,0.00
2013-3-27,46,38,27,33,29,24,89,70,50,29.93,29.76,6,1,13,0.00
2013-3-28,49,40,34,39,35,32,95,83,62,30.02,29.92,5,1,10,0.00
2013-3-29,48,41,31,34,29,18,82,63,42,30.05,29.99,8,3,16,0.00
2013-3-30,48,36,24,23,18,11,82,52,24,30.11,30.03,10,2,14,0.00
2013-3-31,51,37,23,38,27,20,96,71,43,30.03,29.64,6,0,13,0.25
2013-4-1,42,35,21,40,29,8,100,81,49,29.75,29.43,13,4,28,0.16
2013-4-2,28,22,16,17,10,6,71,60,50,29.84,29.73,13,6,25,0.00
2013-4-3,34,27,20,17,13,9,62,55,47,30.16,29.84,16,7,27,0.00
2013-4-4,43,32,16,33,20,10,92,62,48,30.19,29.85,10,4,24,0.02
2013-4-5,39,34,25,35,26,10,95,75,48,30.03,29.77,13,4,20,0.14
2013-4-6,37,26,16,18,11,5,76,52,31,30.29,30.03,9,3,18,0.00
2013-4-7,43,35,27,42,29,16,96,78,58,30.23,29.64,8,1,16,0.12
2013-4-8,45,40,37,36,32,30,88,73,59,30.15,29.84,7,2,13,0.00
2013-4-9,50,41,34,40,37,30,95,87,67,30.01,29.80,6,2,14,0.31
2013-4-10,50,42,36,39,32,20,95,69,44,30.02,29.90,6,1,10,0.00
2013-4-11,38,33,26,22,16,11,74,51,35,30.24,29.98,7,1,13,0.00
2013-4-12,31,30,27,30,23,13,95,77,47,30.24,29.75,9,4,21,0.96
2013-4-13,40,36,31,38,34,30,96,95,91,29.82,29.71,5,1,12,0.15
2013-4-14,46,39,30,35,32,28,96,79,55,30.19,29.82,7,2,13,0.00
2013-4-15,52,40,27,36,31,25,94,73,44,30.34,30.13,5,1,12,0.00
2013-4-16,51,43,37,51,40,32,100,89,68,30.13,29.81,8,1,15,0.47
2013-4-17,54,42,30,32,26,16,93,57,22,30.35,30.06,7,2,14,0.00
2013-4-18,46,38,32,42,30,16,95,73,41,30.39,29.73,7,1,12,0.08
2013-4-19,64,50,40,58,48,38,100,93,77,29.75,29.32,12,1,25,0.46
2013-4-20,45,39,30,41,31,18,95,75,47,30.24,29.58,13,5,29,0.03
2013-4-21,44,33,22,22,16,10,79,51,25,30.69,30.25,9,2,20,0.00
2013-4-22,55,39,22,28,22,18,88,57,27,30.71,30.46,5,1,9,0.00
2013-4-23,56,43,28,38,28,21,88,61,27,30.47,30.07,3,1,12,0.00
2013-4-24,68,47,32,54,40,31,99,79,35,30.07,29.52,7,1,20,0.37
2013-4-25,53,42,34,52,32,28,96,69,40,30.27,29.52,10,0,35,0.02
2013-4-26,50,40,31,38,32,28,92,74,56,30.44,30.27,6,0,12,0.00
2013-4-27,59,44,30,38,34,28,95,70,40,30.44,30.28,7,1,12,0.00
2013-4-28,69,51,32,41,36,31,95,62,31,30.30,30.09,3,0,9,0.00
2013-4-29,68,55,41,50,43,36,87,65,40,30.12,30.04,5,0,12,0.00
2013-4-30,70,57,49,56,51,47,94,81,56,30.24,30.11,3,0,7,0.00
2013-5-1,79,61,43,54,49,42,96,68,36,30.39,30.24,3,0,9,0.00
2013-5-2,76,62,47,53,49,44,92,64,41,30.41,30.33,5,0,13,0.00
2013-5-3,72,59,47,47,41,36,76,54,28,30.46,30.30,5,1,13,0.00
2013-5-4,78,60,42,47,42,38,90,56,25,30.32,30.16,3,0,9,0.00
2013-5-5,82,63,43,48,43,37,89,54,21,30.18,30.06,3,0,10,0.00
2013-5-6,82,64,45,48,43,35,89,53,21,30.11,29.98,7,1,15,0.00
2013-5-7,85,66,43,47,40,33,85,47,19,30.05,29.97,6,1,14,0.00
2013-5-8,85,67,47,57,48,41,85,56,24,30.09,29.95,2,0,12,0.00
2013-5-9,79,66,59,61,56,50,92,74,40,29.97,29.79,6,0,14,0.00
2013-5-10,66,57,47,55,47,42,94,70,48,29.99,29.76,3,0,12,0.22
2013-5-11,58,51,47,58,49,45,100,93,81,29.76,29.55,7,1,17,0.36
2013-5-12,56,48,37,48,41,31,99,81,44,29.66,29.57,9,2,20,0.09
2013-5-13,50,40,34,40,33,29,94,79,50,30.02,29.63,12,3,21,0.11
2013-5-14,58,44,28,34,29,23,94,61,30,30.09,29.96,6,1,13,0.00
2013-5-15,61,47,31,48,38,29,96,75,39,29.99,29.50,3,0,10,0.05
2013-5-16,56,51,45,48,43,39,100,76,58,29.89,29.54,13,3,22,0.01
2013-5-17,67,53,37,49,44,35,96,73,42,30.20,29.90,3,0,9,0.00
2013-5-18,72,56,41,50,43,39,95,67,33,30.28,30.18,2,0,8,0.00
2013-5-19,65,54,42,58,48,40,100,81,61,30.25,29.99,2,0,8,0.05
2013-5-20,73,63,55,61,57,52,100,83,51,29.99,29.92,5,0,10,0.21
2013-5-21,66,58,54,55,54,52,96,87,64,29.98,29.77,5,0,13,0.33
2013-5-22,66,58,53,60,56,52,100,91,79,29.83,29.61,1,0,8,0.20
2013-5-23,72,64,50,68,62,49,100,95,78,29.76,29.62,7,0,14,0.80
2013-5-24,53,48,43,49,41,37,95,79,59,30.06,29.75,5,1,16,0.21
2013-5-25,53,48,43,42,37,32,93,66,47,30.09,30.00,6,1,20,0.07
2013-5-26,60,48,42,44,41,36,95,80,42,30.03,29.93,9,2,22,0.18
2013-5-27,68,54,37,42,35,29,95,57,24,30.14,30.03,8,2,21,0.00
2013-5-28,72,58,40,50,41,36,90,59,29,30.17,30.02,2,0,6,0.00
2013-5-29,63,58,54,63,55,47,100,91,66,30.02,29.82,1,0,8,0.31
2013-5-30,82,68,56,67,62,56,100,82,54,30.02,29.88,6,1,13,0.00
2013-5-31,89,76,64,73,67,63,96,76,51,29.97,29.80,5,1,16,0.00
2013-6-1,84,73,64,70,67,62,100,82,63,29.86,29.68,5,0,14,0.31
2013-6-2,78,69,61,70,67,60,100,93,73,29.71,29.53,6,0,16,0.34
2013-6-3,63,58,53,60,50,44,100,78,53,29.80,29.66,7,2,20,0.00
2013-6-4,63,54,45,48,43,39,91,67,48,30.10,29.78,12,3,21,0.00
2013-6-5,66,54,39,45,40,36,94,63,34,30.22,30.10,6,1,12,0.00
2013-6-6,60,53,46,53,46,40,96,77,56,30.17,30.06,1,0,5,0.10
2013-6-7,53,52,52,53,52,51,100,100,96,30.06,29.99,1,0,7,0.05
2013-6-10,60,58,56,58,56,54,100,96,90,29.90,29.74,5,1,18,0.17
2013-6-11,68,56,54,57,54,52,100,95,56,29.83,29.65,5,1,15,0.33
2013-6-12,76,63,54,60,57,51,100,83,53,29.84,29.75,5,1,13,0.57
2013-6-13,73,64,49,60,55,49,100,76,49,29.78,29.67,2,0,9,0.06
2013-6-14,78,66,52,58,49,36,91,58,27,29.86,29.67,8,1,15,0.00
2013-6-15,75,63,47,52,46,42,89,58,33,29.91,29.80,9,2,20,0.00
2013-6-16,61,55,49,54,52,47,100,90,69,29.83,29.69,2,0,7,0.25
2013-6-17,68,58,49,59,53,47,100,85,61,29.92,29.70,10,1,16,0.14
2013-6-18,70,58,46,55,46,38,95,68,38,30.01,29.90,8,1,13,0.00
2013-6-19,71,57,42,50,44,38,90,64,39,30.14,30.01,2,0,8,0.00
2013-6-20,75,61,43,55,48,42,95,67,35,30.22,30.13,6,1,15,0.00
2013-6-21,81,68,53,60,55,49,90,67,44,30.20,30.14,5,0,9,0.00
2013-6-22,67,63,61,64,62,58,100,95,79,30.16,30.05,2,0,8,0.37
2013-6-23,75,68,63,70,66,62,100,94,81,30.07,29.88,1,0,6,0.15
2013-6-24,86,72,66,77,69,64,100,90,68,29.91,29.76,8,1,16,0.48
2013-6-25,81,72,66,75,69,65,100,90,75,29.79,29.65,7,1,13,0.45
2013-6-26,70,64,58,68,62,58,100,95,86,29.76,29.67,1,0,6,0.17
2013-6-27,74,64,58,68,61,55,100,93,76,29.79,29.72,2,0,13,0.00
2013-6-28,58,56,55,57,56,53,100,98,90,29.77,29.43,3,1,16,1.05
2013-6-29,72,63,56,65,60,56,100,92,73,29.62,29.47,2,0,7,0.03
2013-6-30,74,65,55,62,59,55,100,83,61,29.92,29.62,5,0,10,0.00
2013-7-1,74,66,59,62,57,49,91,73,56,30.11,29.92,1,0,7,0.00
2013-7-2,69,63,58,60,54,47,88,73,59,30.14,30.09,5,0,14,0.00
2013-7-3,80,70,61,70,64,58,96,82,65,30.14,30.07,5,0,12,0.00
2013-7-4,85,73,62,74,69,61,100,87,66,30.12,29.98,7,0,18,0.44
2013-7-5,84,75,67,74,70,67,100,86,66,30.06,29.95,5,1,12,0.01
2013-7-6,85,76,69,73,69,66,100,81,56,30.01,29.90,6,1,16,0.00
2013-7-7,82,73,65,72,67,64,100,84,60,29.93,29.87,5,1,14,0.05
2013-7-8,77,69,63,67,60,55,100,75,52,30.03,29.92,3,0,10,0.00
2013-7-9,84,73,61,70,64,57,94,74,54,30.05,29.89,2,0,9,0.00
2013-7-10,80,72,66,75,70,63,100,92,77,29.89,29.58,10,0,26,0.50
2013-7-11,77,68,58,66,60,54,100,78,49,30.04,29.64,6,1,13,0.01
2013-7-12,77,65,54,60,55,51,93,71,48,30.19,30.04,1,0,5,0.00
2013-7-13,85,70,53,68,60,51,96,73,45,30.27,30.19,3,0,7,0.00
2013-7-14,89,76,62,72,66,61,96,75,44,30.27,30.16,3,0,9,0.00
2013-7-15,91,78,65,70,65,63,100,70,42,30.17,30.10,6,1,12,0.00
2013-7-16,90,79,68,73,67,63,87,69,45,30.20,30.11,2,0,8,0.00
2013-7-17,93,78,68,77,72,67,100,81,54,30.11,29.89,10,1,20,0.19
2013-7-18,87,74,66,75,70,66,100,90,65,29.99,29.84,3,0,10,0.05
2013-7-19,71,70,70,71,70,68,100,99,96,29.84,29.70,5,0,13,0.44
2013-7-22,77,62,50,56,52,48,94,71,39,30.02,29.81,2,0,6,0.00
2013-7-23,83,68,57,71,63,53,100,83,66,29.80,29.46,5,0,14,0.99
2013-7-24,66,57,46,66,51,45,100,80,60,30.05,29.48,8,3,18,0.00
2013-7-25,74,58,43,56,49,42,98,75,48,30.16,30.05,1,0,5,0.00
2013-7-26,76,63,50,60,54,49,95,76,50,30.13,30.01,2,0,8,0.00
2013-7-27,79,66,52,64,57,51,100,77,44,30.02,29.91,1,0,9,0.00
2013-7-28,79,68,63,69,65,61,100,89,69,29.91,29.84,6,0,10,0.48
2013-7-29,71,64,56,64,60,55,100,88,68,30.03,29.90,7,0,13,0.21
2013-7-30,74,63,53,62,57,52,100,81,58,30.08,30.02,6,1,13,0.00
2013-7-31,80,66,54,65,59,53,100,80,53,30.07,29.96,5,0,12,0.00
2013-8-1,79,66,61,69,63,59,100,92,67,29.96,29.72,1,0,7,0.31
2013-8-2,77,65,56,66,61,56,100,87,56,29.76,29.71,6,1,15,0.01
2013-8-3,72,64,58,62,59,57,100,86,64,29.78,29.69,7,1,16,0.06
2013-8-4,70,61,54,58,55,48,96,80,56,29.93,29.75,12,2,18,0.01
2013-8-5,72,57,42,55,47,41,98,73,42,30.01,29.93,8,1,19,0.00
2013-8-6,77,64,51,63,55,50,96,76,44,30.06,29.99,3,0,10,0.00
2013-8-7,79,66,52,67,60,51,100,82,59,30.06,29.87,1,0,7,0.00
2013-8-8,81,71,65,69,66,63,100,85,58,29.92,29.84,6,0,12,0.31
2013-8-9,79,69,62,70,64,58,96,87,67,29.90,29.71,2,0,10,0.00
2013-8-10,72,62,56,58,52,47,92,69,45,29.98,29.72,10,3,21,0.00
2013-8-11,77,64,49,62,55,48,96,73,44,30.00,29.92,6,1,15,0.00
2013-8-12,78,65,53,63,58,52,100,78,49,29.94,29.82,3,0,12,0.00
2013-8-13,74,63,57,64,60,56,100,91,65,29.83,29.62,2,0,6,1.17
2013-8-14,67,59,53,58,54,48,100,83,59,29.91,29.65,7,1,17,0.08
2013-8-15,73,60,48,60,54,46,100,79,56,30.01,29.91,7,1,18,0.00
2013-8-16,74,62,53,62,56,50,96,80,51,30.21,30.00,6,0,12,0.00
2013-8-17,75,61,46,59,53,45,96,77,42,30.30,30.21,3,0,8,0.00
2013-8-18,80,66,51,64,57,50,100,76,50,30.23,30.00,6,1,13,0.00
2013-8-19,82,69,56,65,60,55,95,74,51,30.00,29.91,7,1,13,0.00
2013-8-20,83,72,60,68,64,58,96,77,56,30.01,29.92,5,1,13,0.00
2013-8-21,85,74,62,72,66,61,95,78,58,30.05,29.88,3,1,15,0.00
2013-8-22,73,68,59,71,66,57,100,93,83,29.90,29.77,5,1,14,0.27
2013-8-23,72,62,54,58,53,50,100,76,46,30.18,29.88,6,0,10,0.01
2013-8-24,74,61,49,56,51,47,94,74,46,30.32,30.18,3,0,10,0.00
2013-8-25,76,62,49,62,56,48,100,81,54,30.32,30.03,6,0,12,0.12
2013-8-26,75,68,60,68,65,58,100,91,76,30.04,29.83,5,0,9,0.07
2013-8-27,78,68,61,71,66,61,100,92,76,29.89,29.83,2,0,7,0.00
2013-8-28,83,70,61,75,67,60,100,91,64,29.99,29.84,2,0,9,0.10
2013-8-29,74,66,60,66,62,58,95,86,75,30.05,29.97,3,0,9,0.01
2013-8-30,76,66,58,70,64,58,100,94,80,29.99,29.72,7,0,17,0.36
2013-8-31,74,68,62,68,65,62,100,93,78,29.80,29.70,1,0,7,0.00
2013-9-1,78,68,61,65,62,59,100,80,57,29.88,29.78,2,0,9,0.00
2013-9-2,67,63,60,65,61,56,100,94,79,29.82,29.63,1,0,10,0.50
2013-9-3,68,62,59,64,60,56,100,93,76,29.74,29.64,5,1,15,0.07
2013-9-4,64,57,47,58,54,46,100,89,62,29.92,29.74,8,1,16,0.00
2013-9-5,60,51,40,46,42,37,96,75,44,30.15,29.91,8,1,20,0.00
2013-9-6,68,54,37,51,44,36,100,74,48,30.20,29.96,7,1,17,0.00
2013-9-7,65,60,53,59,55,49,95,85,76,29.97,29.76,6,1,16,0.02
2013-9-8,61,54,40,58,43,38,96,68,44,30.06,29.77,9,2,21,0.00
2013-9-9,67,53,38,55,46,36,96,81,58,30.12,29.98,6,1,16,0.00
2013-9-10,60,57,53,60,57,50,100,98,89,30.00,29.89,1,0,5,0.17
2013-9-11,82,69,60,74,67,60,100,94,72,29.92,29.85,7,1,15,0.01
2013-9-12,74,67,60,70,65,60,100,96,83,29.87,29.58,3,0,13,0.79
2013-9-13,60,54,50,60,52,48,100,91,80,29.88,29.61,6,0,12,0.06
2013-9-14,58,51,42,52,48,41,96,88,75,30.01,29.86,5,0,9,0.00
2013-9-15,62,52,41,57,50,40,100,91,77,30.04,29.95,5,0,13,0.02
2013-9-16,55,47,37,55,41,35,100,81,52,30.35,29.94,5,1,12,0.32
2013-9-17,63,48,34,48,41,33,100,79,46,30.45,30.25,5,0,13,0.00
2013-9-18,68,53,40,53,46,39,100,82,49,30.25,30.08,3,0,12,0.00
2013-9-19,73,58,42,59,51,40,100,81,55,30.09,30.00,3,0,12,0.00
2013-9-20,76,62,50,63,57,50,100,85,58,30.01,29.80,1,0,7,0.00
2013-9-21,63,59,55,62,59,55,100,99,89,29.79,29.53,3,0,12,1.24
2013-9-22,59,53,43,59,48,40,100,86,65,29.89,29.49,8,2,16,0.12
2013-9-23,56,46,37,43,40,35,96,79,59,30.07,29.89,7,1,15,0.00
2013-9-24,57,46,40,42,40,38,92,79,56,30.05,29.95,6,1,14,0.00
2013-9-25,66,56,45,54,49,43,95,77,60,30.03,29.93,2,0,9,0.00
2013-9-26,64,51,41,53,47,40,100,86,62,30.18,30.03,1,0,5,0.00
2013-9-27,66,53,44,55,49,43,100,87,62,30.29,30.18,1,0,7,0.00
2013-9-28,70,56,44,57,50,44,100,85,51,30.34,30.20,2,0,7,0.00
2013-9-29,71,55,42,56,49,42,100,84,52,30.20,30.02,2,0,9,0.01
2013-9-30,72,56,44,57,51,44,100,85,57,30.05,29.96,3,0,6,0.00
2013-10-1,74,60,49,63,55,48,96,84,67,29.96,29.81,5,0,12,0.00
2013-10-2,75,62,48,62,52,43,96,73,33,29.93,29.75,9,2,24,0.00
2013-10-3,69,56,46,51,47,43,92,73,47,30.09,29.93,3,0,10,0.00
2013-10-4,61,56,51,52,49,44,92,78,58,30.13,30.02,1,0,8,0.00
2013-10-5,62,54,48,49,44,40,92,71,48,30.18,30.09,1,0,7,0.00
2013-10-6,56,50,44,52,42,35,100,77,53,30.19,29.87,5,1,16,0.20
2013-10-7,65,55,50,63,54,43,100,96,75,29.87,29.53,13,1,25,0.42
2013-10-8,57,46,38,43,40,37,95,79,51,30.35,29.77,10,2,24,0.00
2013-10-9,63,50,35,47,41,34,96,75,42,30.42,30.29,3,0,9,0.00
2013-10-10,67,49,36,52,43,35,100,82,51,30.30,30.17,3,0,8,0.00
2013-10-11,71,53,39,54,46,38,100,80,48,30.19,30.13,2,0,6,0.00
2013-10-12,68,56,46,55,51,44,100,83,61,30.29,30.18,2,0,10,0.00
2013-10-13,64,55,48,54,51,46,96,86,69,30.35,30.23,2,0,8,0.00
2013-10-14,67,57,50,62,55,49,100,93,76,30.25,30.17,3,0,8,0.36
2013-10-15,57,52,45,52,49,44,100,90,80,30.27,30.03,2,0,7,0.00
2013-10-16,61,56,52,59,55,50,100,96,90,30.03,29.71,0,0,5,0.22
2013-10-17,61,53,48,57,52,47,100,95,68,29.76,29.66,6,1,15,0.22
2013-10-18,58,51,44,55,49,42,100,93,70,29.78,29.61,6,1,18,0.25
2013-10-19,54,46,36,51,44,36,100,94,85,29.84,29.56,2,0,10,0.04
2013-10-20,52,45,36,48,40,33,100,82,56,29.94,29.51,10,3,25,0.20
2013-10-21,47,40,30,46,38,30,100,92,78,30.02,29.74,2,0,8,0.02
2013-10-22,50,45,34,49,40,29,100,84,47,29.75,29.62,12,2,26,0.33
2013-10-23,47,37,29,37,31,27,96,82,56,29.69,29.61,6,1,12,0.00
2013-10-24,42,34,25,35,30,23,93,84,68,29.83,29.63,7,2,17,0.00
2013-10-25,44,35,27,33,29,26,94,80,56,30.07,29.83,9,2,16,0.01
2013-10-26,39,34,28,39,33,26,100,96,93,30.05,29.69,7,1,15,0.49
2013-10-27,43,39,32,40,35,28,100,86,63,29.96,29.67,9,2,16,0.03
2013-10-28,41,34,24,37,29,22,96,81,52,30.39,29.88,12,2,25,0.05
2013-10-29,38,28,20,27,23,18,94,81,61,30.47,30.32,3,0,10,0.00
2013-10-30,43,31,22,34,27,20,94,84,60,30.32,30.15,5,0,14,0.00
2013-10-31,49,38,27,49,37,25,100,96,90,30.17,29.48,2,0,6,0.83
2013-11-1,63,54,44,59,51,38,100,90,64,29.57,29.06,15,3,36,1.39
2013-11-2,44,40,30,40,34,18,95,78,60,29.98,29.57,7,1,14,0.02
2013-11-3,39,29,21,20,18,14,91,67,38,30.54,29.98,5,1,13,0.00
2013-11-4,38,28,20,22,19,16,90,71,43,30.72,30.54,3,0,7,0.00
2013-11-5,48,36,28,33,26,20,84,69,48,30.62,30.35,2,0,10,0.00
2013-11-6,54,44,32,47,39,30,100,86,64,30.35,29.67,2,0,7,0.13
2013-11-7,53,43,34,53,38,27,100,81,65,29.83,29.57,12,3,20,0.31
2013-11-8,38,34,30,29,26,25,88,73,65,30.06,29.78,12,4,21,0.00
2013-11-9,38,35,32,30,26,24,90,71,59,30.15,29.87,8,1,15,0.00
2013-11-10,36,34,32,35,33,30,96,95,90,29.87,29.65,8,0,17,0.19
2013-11-11,35,32,23,33,28,19,95,85,71,30.04,29.75,10,3,17,0.05
2013-11-12,30,24,20,22,18,14,88,78,68,30.24,29.94,12,4,21,0.00
2013-11-13,30,22,14,25,17,11,90,79,63,30.29,29.91,7,2,14,0.00
2013-11-14,40,33,27,32,28,25,93,80,69,29.95,29.88,7,1,18,0.13
2013-11-15,47,38,27,36,33,25,96,82,64,30.11,29.94,6,0,14,0.17
2013-11-16,51,37,30,37,32,28,96,83,55,30.23,30.10,2,0,8,0.01
2013-11-17,52,41,29,52,39,27,100,92,78,30.19,29.50,1,0,6,0.28
2013-11-18,54,46,32,54,42,24,100,87,68,29.57,29.24,13,5,36,0.53
2013-11-19,32,30,25,23,19,16,76,65,57,30.38,29.57,14,6,25,0.00
2013-11-20,33,26,20,20,18,16,89,72,55,30.63,30.38,3,0,8,0.00
2013-11-21,34,27,18,26,22,16,93,82,69,30.62,30.32,1,0,4,0.00
2013-11-22,36,33,31,34,31,26,96,90,82,30.32,29.77,10,0,21,0.20
2013-11-23,33,25,18,29,19,10,88,78,70,29.96,29.80,14,6,24,0.00
2013-11-24,20,15,8,13,5,-1,84,66,43,30.24,29.87,18,7,39,0.00
2013-11-25,24,14,5,22,8,1,92,77,64,30.35,30.05,6,1,12,0.00
2013-11-26,34,31,24,30,28,22,95,90,84,30.16,29.94,5,0,10,0.13
2013-11-27,34,31,22,33,29,18,96,93,83,29.94,29.37,9,2,20,0.69
2013-11-28,22,16,10,18,10,6,87,78,67,30.41,29.51,12,4,22,0.00
2013-11-29,24,10,-2,16,5,-5,92,81,59,30.77,30.41,6,0,10,0.00
2013-11-30,16,7,-5,13,4,-9,91,86,84,30.79,30.28,1,0,7,0.00
2013-12-1,28,23,16,26,21,13,94,91,88,30.28,30.07,1,0,6,0.03
2013-12-2,31,29,27,28,27,26,94,93,89,30.07,29.91,3,0,9,0.02
2013-12-3,35,31,29,33,29,27,95,93,84,30.00,29.91,2,0,6,0.00
2013-12-4,37,29,18,30,25,16,96,87,71,30.16,30.00,2,0,10,0.00
2013-12-5,44,33,29,44,32,26,100,93,88,30.13,29.71,6,1,13,0.02
2013-12-6,37,33,27,34,23,13,90,68,49,30.14,29.84,9,3,20,0.00
2013-12-7,27,20,12,14,11,7,83,67,49,30.45,30.11,13,2,23,0.00
2013-12-8,25,14,1,13,8,-2,90,77,53,30.58,30.45,6,0,12,0.00
2013-12-9,31,22,16,30,19,12,96,89,76,30.47,29.75,7,1,15,0.37
2013-12-10,30,20,7,28,13,3,93,73,48,29.88,29.74,10,3,24,0.00
2013-12-11,20,8,-14,16,4,-19,91,80,63,30.29,29.88,7,1,17,0.00
2013-12-12,11,2,-15,8,-4,-20,91,78,64,30.29,29.85,5,1,12,0.00
2013-12-13,11,1,-16,8,-6,-21,89,73,53,30.49,29.84,9,2,16,0.00
2013-12-14,0,-9,-22,-4,-16,-26,85,74,64,30.69,30.21,5,1,16,0.00
2013-12-15,13,8,0,10,5,-4,89,87,84,30.20,29.62,5,1,15,0.40
2013-12-16,4,-2,-14,1,-6,-19,88,84,80,30.25,29.68,7,1,17,0.00
2013-12-17,4,-7,-21,0,-11,-26,87,83,79,30.26,30.05,3,0,10,0.00
2013-12-18,18,11,0,15,8,-3,91,88,86,30.05,29.93,2,0,5,0.01
2013-12-19,28,21,13,27,19,10,94,92,89,30.07,29.85,3,0,8,0.02
2013-12-20,27,21,16,25,18,14,93,90,88,30.08,29.92,5,0,9,0.20
2013-12-21,22,19,17,20,17,15,93,91,90,30.07,29.85,3,0,9,0.17
2013-12-22,21,18,16,18,16,14,93,91,89,30.06,29.79,8,2,21,0.53
2013-12-23,23,18,13,21,16,10,93,92,88,30.19,29.99,3,0,8,0.00
2013-12-24,13,6,-3,10,3,-7,91,86,84,30.36,30.18,5,1,10,0.00
2013-12-25,7,-1,-12,3,-5,-16,90,84,77,30.56,30.36,5,0,8,0.00
2013-12-26,19,11,2,15,8,-2,92,88,84,30.38,30.10,1,0,5,0.02
2013-12-27,25,15,5,22,13,1,94,89,84,30.18,30.06,8,0,12,0.00
2013-12-28,33,28,5,33,27,2,100,95,88,30.06,29.88,5,1,11,0.05
2013-12-29,33,19,12,33,17,10,100,93,90,29.96,29.59,5,1,13,0.00
2013-12-30,16,3,-10,14,-1,-14,93,84,78,30.25,29.59,9,3,18,0.00
2013-12-31,1,-4,-14,-3,-8,-18,87,83,79,30.22,30.03,2,0,6,0.01
2014-1-1,0,-9,-18,-5,-14,-23,87,79,72,30.55,30.13,9,2,17,0.00
2014-1-2,-8,-14,-20,-15,-20,-25,80,72,60,30.55,30.19,3,0,9,0.00